Flight Track Log - Related Links

Times and Time Zones

All times are in EDT time to prevent confusion due to time zone crossing. See the EJM918 flight status page for this flight to view local times or setup timezone preferences in your user account.

Time Position Orientation Groundspeed Altitude Reporting Facility
EDT Latitude Longitude Course Direction KTS MPH feet Rate Location/Type
Mon 05:52:29 PM 41.1320 -73.8630 306° West 222 255 7,800  Level FlightAware ADS-B
Mon 05:52:55 PM 41.1520 -73.8860 319° Northwest 243 280 9,600 3,474 Climbing FlightAware ADS-B
Mon 05:53:07 PM 41.1660 -73.8900 348° North 270 311 10,000 732 Climbing FlightAware ADS-B
Mon 05:53:36 PM 41.1990 -73.8620 33° Northeast 302 348 10,100 79 Climbing FlightAware ADS-B
Mon 05:54:23 PM 41.2210 -73.7820 70° East 310 357 10,100  Level FlightAware ADS-B
Mon 05:55:01 PM 41.2440 -73.7050 68° East 352 405 10,100  Level FlightAware ADS-B
Mon 05:55:43 PM 41.2660 -73.6300 69° East 339 390 10,100  Level FlightAware ADS-B
Mon 05:56:27 PM 41.3050 -73.5480 58° Northeast 330 380 10,100  Level FlightAware ADS-B
Mon 05:57:25 PM 41.3600 -73.4750 45° Northeast 320 368 10,100  Level FlightAware ADS-B
Mon 05:58:01 PM 41.3920 -73.4320 45° Northeast 320 368 10,100  Level FlightAware ADS-B
Mon 06:00:00 PM 41.4591 -73.3412 45° Northeast  Level Estimated
Mon 06:01:00 PM 41.4929 -73.2954 45° Northeast  Level Estimated
Mon 06:02:00 PM 41.5267 -73.2495 45° Northeast  Level Estimated
Mon 06:03:00 PM 41.5605 -73.2036 45° Northeast  Level Estimated
Mon 06:04:00 PM 41.5942 -73.1576 46° Northeast  Level Estimated
Mon 06:05:00 PM 41.6279 -73.1115 46° Northeast  Level Estimated
Mon 06:06:00 PM 41.6617 -73.0655 46° Northeast  Level Estimated
Mon 06:07:00 PM 41.6954 -73.0193 46° Northeast  Level Estimated
Mon 06:08:00 PM 41.7290 -72.9731 46° Northeast  Level Estimated
Mon 06:09:00 PM 41.7627 -72.9269 46° Northeast  Level Estimated
Mon 06:10:00 PM 41.7963 -72.8806 46° Northeast  Level Estimated
Mon 06:11:00 PM 41.8300 -72.8343 46° Northeast  Level Estimated
Mon 06:12:00 PM 41.8636 -72.7879 46° Northeast  Level Estimated
Mon 06:13:00 PM 41.8971 -72.7415 46° Northeast  Level Estimated
Mon 06:14:00 PM 41.9307 -72.6951 46° Northeast  Level Estimated
Mon 06:15:00 PM 41.9392 -72.6834 46° Northeast  Level Estimated
Mon 06:16:00 PM 41.9392 -72.6834 191° South  Level Estimated
Mon 06:17:00 PM 41.9392 -72.6834 191° South  Level Estimated
Mon 06:18:00 PM 41.9392 -72.6834 191° South  Level Estimated
Mon 06:19:00 PM 41.9392 -72.6834 191° South  Level Estimated
Mon 06:20:00 PM 41.9392 -72.6834 191° South  Level Estimated
Mon 06:21:00 PM 41.9392 -72.6834 191° South  Level Estimated
Mon 06:22:00 PM 41.9392 -72.6834 191° South  Level Estimated
Mon 06:23:00 PM 41.9392 -72.6834 191° South  Level Estimated
Mon 06:24:00 PM 41.9392 -72.6834 191° South  Level Estimated
Mon 06:25:00 PM 41.9392 -72.6834 191° South  Level Estimated
Mon 06:26:00 PM 41.9392 -72.6834 191° South  Level Estimated
Mon 06:27:00 PM 41.9392 -72.6834 191° South  Level Estimated
Mon 06:28:00 PM 41.9392 -72.6834 191° South  Level Estimated
Mon 06:29:00 PM 41.9392 -72.6834 191° South  Level Estimated
Mon 06:30:00 PM 41.9392 -72.6834 191° South  Level Estimated
Mon 06:31:00 PM 41.9392 -72.6834 191° South  Level Estimated
Mon 06:32:00 PM 41.9392 -72.6834 191° South  Level Estimated
Mon 06:33:00 PM 41.9392 -72.6834 191° South  Level Estimated
Mon 06:34:00 PM 41.9392 -72.6834 191° South  Level Estimated
Mon 06:35:00 PM 41.9392 -72.6834 191° South  Level Estimated

Login

Don't have an account? Register now (free) for customized features, flight alerts, and more!